createdAt,value
2018-05-05T00:02:16.364Z,9.30
2018-05-05T00:04:42.679Z,9.40
2018-05-05T00:07:10.272Z,9.30
2018-05-05T00:09:37.369Z,9.20
2018-05-05T00:12:03.761Z,9.10
2018-05-05T00:14:30.797Z,8.70
2018-05-05T00:16:57.862Z,9.10
2018-05-05T00:19:24.212Z,9.00
2018-05-05T00:21:50.578Z,9.20
2018-05-05T00:24:16.928Z,9.30
2018-05-05T00:26:43.239Z,9.40
2018-05-05T00:29:09.598Z,9.30
2018-05-05T00:31:35.928Z,9.30
2018-05-05T00:34:02.292Z,8.70
2018-05-05T00:36:28.670Z,7.90
2018-05-05T00:38:54.987Z,7.80
2018-05-05T00:41:21.322Z,8.20
2018-05-05T00:43:47.679Z,8.50
2018-05-05T00:46:14.737Z,8.80
2018-05-05T00:48:41.285Z,8.70
2018-05-05T00:51:07.646Z,8.70
2018-05-05T00:53:34.038Z,8.70
2018-05-05T00:56:01.154Z,8.50
2018-05-05T00:58:27.482Z,8.40
2018-05-05T01:00:53.816Z,7.80
2018-05-05T01:03:20.198Z,7.20
2018-05-05T01:05:46.577Z,7.90
2018-05-05T01:08:12.938Z,8.10
2018-05-05T01:10:40.030Z,7.90
2018-05-05T01:13:06.396Z,7.80
2018-05-05T01:15:33.478Z,7.30
2018-05-05T01:18:00.571Z,7.20
2018-05-05T01:20:26.893Z,7.10
2018-05-05T01:22:53.328Z,7.60
2018-05-05T01:25:25.760Z,7.80
2018-05-05T01:27:52.134Z,7.50
2018-05-05T01:30:18.441Z,8.00
2018-05-05T01:32:44.819Z,8.20
2018-05-05T01:35:11.218Z,7.90
2018-05-05T01:37:37.529Z,8.00
2018-05-05T01:40:03.963Z,7.20
2018-05-05T01:42:30.283Z,7.00
2018-05-05T01:44:56.632Z,6.50
2018-05-05T01:47:22.944Z,6.70
2018-05-05T01:49:49.337Z,7.10
2018-05-05T01:52:15.649Z,7.50
2018-05-05T01:54:41.963Z,7.70
2018-05-05T01:57:09.062Z,7.80
2018-05-05T01:59:36.127Z,8.00
2018-05-05T02:02:02.521Z,8.00
2018-05-05T02:04:29.982Z,8.20
2018-05-05T02:06:56.406Z,7.90
2018-05-05T02:09:22.807Z,7.70
2018-05-05T02:11:49.129Z,7.60
2018-05-05T02:14:15.486Z,7.80
2018-05-05T02:16:41.850Z,7.20
2018-05-05T02:19:08.896Z,7.10
2018-05-05T02:21:36.009Z,7.60
2018-05-05T02:24:02.387Z,7.50
2018-05-05T02:26:29.438Z,7.60
2018-05-05T02:28:56.534Z,7.60
2018-05-05T02:31:22.873Z,7.50
2018-05-05T02:33:49.229Z,7.60
2018-05-05T02:36:16.283Z,6.80
2018-05-05T02:38:43.394Z,6.40
2018-05-05T02:41:09.705Z,6.30
2018-05-05T02:43:36.067Z,6.70
2018-05-05T02:46:02.389Z,6.50
2018-05-05T02:48:28.698Z,6.40
2018-05-05T02:50:55.068Z,6.50
2018-05-05T02:53:21.381Z,6.80
2018-05-05T02:55:47.732Z,7.30
2018-05-05T02:58:14.030Z,7.40
2018-05-05T03:00:40.384Z,7.70
2018-05-05T03:03:06.699Z,7.60
2018-05-05T03:05:33.067Z,7.60
2018-05-05T03:08:00.154Z,6.80
2018-05-05T03:10:26.837Z,6.70
2018-05-05T03:12:53.933Z,6.30
2018-05-05T03:15:20.283Z,6.20
2018-05-05T03:17:46.638Z,6.70
2018-05-05T03:20:12.957Z,6.80
2018-05-05T03:22:42.315Z,6.80
2018-05-05T03:25:08.613Z,7.10
2018-05-05T03:27:35.805Z,6.80
2018-05-05T03:30:02.892Z,7.00
2018-05-05T03:32:29.256Z,6.90
2018-05-05T03:34:55.572Z,7.50
2018-05-05T03:37:21.917Z,7.20
2018-05-05T03:39:49.012Z,6.10
2018-05-05T03:42:15.326Z,6.00
2018-05-05T03:44:41.646Z,6.20
2018-05-05T03:47:07.988Z,6.20
2018-05-05T03:49:34.337Z,5.70
2018-05-05T03:52:00.693Z,5.60
2018-05-05T03:54:26.994Z,5.80
2018-05-05T03:56:53.314Z,5.80
2018-05-05T03:59:31.965Z,6.40
2018-05-05T04:02:10.661Z,6.20
2018-05-05T04:07:57.783Z,5.90
2018-05-05T04:10:24.139Z,5.90
2018-05-05T04:12:50.456Z,6.20
2018-05-05T04:15:16.813Z,6.60
2018-05-05T04:17:43.137Z,6.90
2018-05-05T04:20:09.494Z,6.60
2018-05-05T04:22:36.619Z,6.90
2018-05-05T04:25:02.940Z,6.90
2018-05-05T04:27:29.286Z,6.70
2018-05-05T04:29:55.592Z,6.50
2018-05-05T04:32:21.965Z,6.70
2018-05-05T04:34:49.039Z,7.30
2018-05-05T04:37:15.430Z,7.30
2018-05-05T04:39:41.744Z,7.70
2018-05-05T04:42:08.210Z,7.40
2018-05-05T04:44:35.265Z,7.40
2018-05-05T04:47:02.325Z,7.60
2018-05-05T04:49:28.674Z,7.50
2018-05-05T04:51:55.008Z,7.80
2018-05-05T04:54:21.419Z,7.80
2018-05-05T04:56:47.772Z,7.80
2018-05-05T04:59:14.134Z,7.80
2018-05-05T05:01:40.510Z,7.80
2018-05-05T05:04:06.823Z,7.90
2018-05-05T05:06:33.882Z,7.80
2018-05-05T05:09:00.982Z,8.10
2018-05-05T05:11:27.307Z,8.10
2018-05-05T05:13:53.663Z,8.10
2018-05-05T05:16:20.727Z,8.00
2018-05-05T05:18:47.090Z,8.00
2018-05-05T05:21:13.409Z,8.10
2018-05-05T05:23:39.707Z,7.80
2018-05-05T05:26:06.070Z,8.10
2018-05-05T05:28:32.456Z,8.00
2018-05-05T05:30:58.771Z,8.20
2018-05-05T05:33:25.152Z,8.50
2018-05-05T05:35:51.527Z,8.60
2018-05-05T05:38:17.847Z,8.50
2018-05-05T05:40:44.205Z,8.30
2018-05-05T05:43:10.509Z,8.00
2018-05-05T05:45:36.822Z,8.10
2018-05-05T05:48:03.195Z,8.20
2018-05-05T05:50:29.546Z,8.30
2018-05-05T05:52:58.702Z,8.60
2018-05-05T05:55:25.069Z,8.60
2018-05-05T05:57:52.138Z,8.90
2018-05-05T06:00:19.257Z,9.00
2018-05-05T06:02:45.616Z,9.00
2018-05-05T06:05:12.658Z,9.30
2018-05-05T06:07:39.770Z,9.40
2018-05-05T06:10:06.088Z,9.40
2018-05-05T06:12:32.462Z,9.60
2018-05-05T06:14:59.450Z,9.80
2018-05-05T06:17:25.777Z,9.80
2018-05-05T06:19:52.127Z,9.90
2018-05-05T06:22:18.474Z,10.00
2018-05-05T06:24:46.304Z,10.00
2018-05-05T06:27:12.690Z,10.00
2018-05-05T06:29:39.014Z,10.20
2018-05-05T06:32:06.074Z,10.40
2018-05-05T06:34:33.189Z,10.40
2018-05-05T06:36:59.520Z,10.30
2018-05-05T06:39:25.826Z,10.50
2018-05-05T06:41:52.154Z,10.50
2018-05-05T06:44:18.450Z,10.60
2018-05-05T06:46:45.574Z,10.50
2018-05-05T06:49:11.903Z,10.50
2018-05-05T06:51:38.969Z,10.80
2018-05-05T06:54:06.065Z,10.70
2018-05-05T06:56:32.387Z,10.60
2018-05-05T06:58:58.729Z,10.70
2018-05-05T07:01:25.088Z,10.70
2018-05-05T07:03:51.403Z,10.70
2018-05-05T07:06:17.754Z,10.90
2018-05-05T07:08:44.108Z,11.00
2018-05-05T07:11:11.230Z,11.00
2018-05-05T07:13:37.585Z,10.90
2018-05-05T07:16:04.645Z,11.20
2018-05-05T07:18:31.010Z,11.10
2018-05-05T07:20:57.366Z,11.10
2018-05-05T07:23:23.737Z,11.30
2018-05-05T07:25:50.028Z,11.30
2018-05-05T07:28:16.374Z,11.30
2018-05-05T07:30:42.689Z,11.30
2018-05-05T07:33:09.067Z,11.40
2018-05-05T07:35:35.445Z,11.60
2018-05-05T07:38:01.756Z,11.80
2018-05-05T07:40:28.108Z,11.90
2018-05-05T07:42:54.506Z,11.90
2018-05-05T07:45:20.827Z,12.00
2018-05-05T07:47:47.127Z,12.10
2018-05-05T07:50:14.234Z,12.60
2018-05-05T07:52:40.558Z,12.50
2018-05-05T07:55:06.910Z,12.70
2018-05-05T07:57:33.273Z,13.00
2018-05-05T08:00:00.341Z,13.30
2018-05-05T08:02:26.707Z,13.30
2018-05-05T08:04:53.013Z,13.50
2018-05-05T08:07:19.359Z,13.50
2018-05-05T08:09:45.653Z,13.60
2018-05-05T08:12:12.038Z,13.80
2018-05-05T08:14:38.347Z,14.00
2018-05-05T08:17:04.667Z,14.00
2018-05-05T08:19:31.019Z,14.10
2018-05-05T08:21:58.879Z,13.80
2018-05-05T08:24:25.224Z,13.80
2018-05-05T08:26:51.527Z,13.90
2018-05-05T08:29:17.932Z,13.60
2018-05-05T08:31:45.325Z,13.20
2018-05-05T08:34:12.372Z,13.10
2018-05-05T08:36:39.522Z,12.90
2018-05-05T08:39:05.899Z,12.90
2018-05-05T08:41:32.947Z,12.90
2018-05-05T08:44:00.017Z,12.80
2018-05-05T08:46:26.376Z,12.70
2018-05-05T08:48:52.695Z,12.70
2018-05-05T08:51:19.742Z,12.60
2018-05-05T08:53:46.138Z,12.80
2018-05-05T08:56:12.493Z,12.80
2018-05-05T08:58:38.860Z,12.90
2018-05-05T09:01:05.587Z,13.10
2018-05-05T09:03:31.902Z,13.20
2018-05-05T09:05:58.278Z,13.10
2018-05-05T09:08:25.333Z,13.30
2018-05-05T09:10:52.409Z,13.20
2018-05-05T09:13:18.759Z,13.10
2018-05-05T09:15:45.067Z,13.10
2018-05-05T09:18:11.555Z,13.30
2018-05-05T09:20:37.866Z,13.80
2018-05-05T09:23:04.184Z,13.70
2018-05-05T09:25:30.546Z,13.70
2018-05-05T09:27:56.885Z,13.80
2018-05-05T09:30:24.737Z,13.90
2018-05-05T09:32:51.068Z,13.90
2018-05-05T09:35:17.381Z,14.10
2018-05-05T09:37:44.516Z,14.10
2018-05-05T09:40:10.873Z,14.00
2018-05-05T09:42:37.253Z,14.30
2018-05-05T09:45:03.817Z,14.50
2018-05-05T09:47:30.978Z,14.30
2018-05-05T09:49:57.896Z,14.30
2018-05-05T09:52:27.081Z,14.20
2018-05-05T09:54:53.422Z,14.40
2018-05-05T09:57:19.742Z,14.50
2018-05-05T09:59:46.106Z,14.60
2018-05-05T10:02:12.414Z,14.80
2018-05-05T10:04:38.772Z,14.70
2018-05-05T10:07:05.071Z,14.70
2018-05-05T10:09:31.426Z,14.80
2018-05-05T10:11:57.749Z,14.80
2018-05-05T10:14:24.097Z,15.00
2018-05-05T10:16:50.398Z,14.80
2018-05-05T10:19:16.746Z,15.00
2018-05-05T10:21:43.063Z,15.10
2018-05-05T10:24:09.407Z,15.20
2018-05-05T10:26:35.835Z,15.00
2018-05-05T10:29:02.341Z,15.20
2018-05-05T10:31:28.638Z,15.30
2018-05-05T10:33:55.003Z,15.40
2018-05-05T10:36:21.346Z,15.50
2018-05-05T10:38:47.871Z,15.70
2018-05-05T10:41:14.210Z,15.70
2018-05-05T10:43:40.597Z,15.80
2018-05-05T10:46:07.842Z,15.80
2018-05-05T10:48:34.369Z,15.70
2018-05-05T10:51:00.796Z,16.00
2018-05-05T10:53:27.098Z,16.00
2018-05-05T10:55:53.467Z,15.90
2018-05-05T10:58:19.923Z,15.80
2018-05-05T11:00:47.028Z,16.10
2018-05-05T11:03:13.561Z,16.10
2018-05-05T11:05:39.912Z,16.10
2018-05-05T11:08:06.277Z,16.10
2018-05-05T11:10:32.616Z,16.10
2018-05-05T11:12:58.915Z,16.10
2018-05-05T11:15:26.031Z,16.10
2018-05-05T11:17:53.285Z,16.10
2018-05-05T11:20:20.845Z,16.40
2018-05-05T11:22:48.096Z,16.40
2018-05-05T11:25:16.984Z,16.50
2018-05-05T11:27:44.441Z,16.40
2018-05-05T11:30:11.570Z,16.60
2018-05-05T11:32:38.841Z,16.80
2018-05-05T11:35:09.576Z,16.90
2018-05-05T11:37:37.487Z,17.00
2018-05-05T11:40:05.206Z,17.00
2018-05-05T11:42:32.670Z,17.00
2018-05-05T11:45:01.452Z,17.00
2018-05-05T11:47:29.222Z,17.00
2018-05-05T11:49:57.693Z,17.20
2018-05-05T11:52:25.252Z,17.20
2018-05-05T11:54:53.429Z,17.20
2018-05-05T11:57:21.602Z,17.00
2018-05-05T11:59:50.592Z,17.20
2018-05-05T12:02:19.140Z,17.30
2018-05-05T12:04:46.404Z,17.50
2018-05-05T12:07:12.713Z,17.50
2018-05-05T12:09:39.392Z,17.60
2018-05-05T12:12:05.701Z,17.80
2018-05-05T12:14:32.049Z,17.70
2018-05-05T12:16:58.373Z,17.70
2018-05-05T12:19:24.729Z,17.90
2018-05-05T12:21:52.556Z,17.90
2018-05-05T12:24:18.895Z,17.80
2018-05-05T12:26:45.202Z,17.90
2018-05-05T12:29:12.360Z,18.20
2018-05-05T12:31:38.924Z,18.10
2018-05-05T12:34:05.294Z,18.30
2018-05-05T12:36:32.355Z,18.50
2018-05-05T12:39:00.163Z,18.50
2018-05-05T12:41:27.999Z,18.40
2018-05-05T12:43:54.346Z,18.40
2018-05-05T12:46:21.104Z,18.50
2018-05-05T12:48:47.406Z,18.60
2018-05-05T12:51:13.753Z,18.50
2018-05-05T12:53:40.047Z,18.60
2018-05-05T12:56:06.389Z,18.70
2018-05-05T12:58:33.575Z,19.00
2018-05-05T13:01:00.722Z,19.30
2018-05-05T13:03:27.402Z,19.40
2018-05-05T13:05:54.511Z,19.40
2018-05-05T13:08:20.872Z,19.30
2018-05-05T13:10:47.214Z,19.40
2018-05-05T13:13:14.308Z,19.60
2018-05-05T13:15:40.652Z,19.60
2018-05-05T13:18:06.974Z,19.80
2018-05-05T13:20:33.317Z,19.90
2018-05-05T13:22:59.778Z,20.10
2018-05-05T13:25:26.211Z,19.90
2018-05-05T13:27:53.262Z,20.10
2018-05-05T13:30:20.352Z,20.10
2018-05-05T13:32:46.783Z,20.10
2018-05-05T13:35:13.250Z,20.30
2018-05-05T13:37:39.554Z,20.70
2018-05-05T13:40:05.926Z,20.70
2018-05-05T13:42:32.225Z,21.00
2018-05-05T13:44:58.586Z,21.10
2018-05-05T13:47:24.903Z,21.10
2018-05-05T13:49:52.741Z,21.90
2018-05-05T13:52:19.070Z,21.90
2018-05-05T13:54:45.389Z,22.20
2018-05-05T13:57:11.757Z,22.50
2018-05-05T13:59:38.058Z,22.70
2018-05-05T14:02:04.406Z,22.50
2018-05-05T14:04:30.726Z,22.50
2018-05-05T14:06:57.093Z,22.70
2018-05-05T14:09:23.466Z,22.80
2018-05-05T14:11:49.833Z,22.60
2018-05-05T14:14:16.258Z,21.90
2018-05-05T14:16:42.796Z,22.50
2018-05-05T14:19:09.221Z,23.10
2018-05-05T14:21:35.552Z,24.10
2018-05-05T14:24:01.858Z,24.30
2018-05-05T14:26:28.424Z,24.40
2018-05-05T14:28:54.902Z,25.00
2018-05-05T14:31:21.984Z,26.10
2018-05-05T14:33:48.290Z,26.00
2018-05-05T14:36:14.617Z,25.60
2018-05-05T14:38:41.034Z,25.00
2018-05-05T14:41:08.108Z,24.20
2018-05-05T14:43:34.407Z,24.10
2018-05-05T14:46:01.520Z,25.40
2018-05-05T14:48:27.890Z,25.30
2018-05-05T14:50:54.493Z,24.30
2018-05-05T14:53:21.119Z,25.50
2018-05-05T14:55:47.474Z,27.30
2018-05-05T14:58:20.963Z,28.00
2018-05-05T15:00:47.330Z,28.70
2018-05-05T15:03:13.638Z,29.70
2018-05-05T15:05:40.248Z,29.80
2018-05-05T15:08:06.787Z,30.50
2018-05-05T15:10:33.150Z,30.10
2018-05-05T15:13:00.183Z,30.30
2018-05-05T15:15:26.533Z,30.20
2018-05-05T15:17:53.587Z,28.30
2018-05-05T15:20:20.625Z,28.70
2018-05-05T15:22:47.724Z,28.80
2018-05-05T15:25:14.054Z,28.70
2018-05-05T15:27:40.340Z,28.00
2018-05-05T15:30:06.719Z,29.40
2018-05-05T15:32:33.025Z,30.60
2018-05-05T15:34:59.326Z,31.50
2018-05-05T15:37:26.438Z,33.40
2018-05-05T15:39:54.239Z,33.40
2018-05-05T15:42:20.614Z,33.40
2018-05-05T15:44:46.957Z,33.00
2018-05-05T15:47:13.318Z,32.80
2018-05-05T15:49:40.406Z,33.20
2018-05-05T15:52:06.765Z,33.20
2018-05-05T15:54:33.067Z,33.30
2018-05-05T15:56:59.485Z,33.80
2018-05-05T15:59:26.453Z,33.40
2018-05-05T16:01:52.781Z,33.40
2018-05-05T16:04:19.136Z,33.40
2018-05-05T16:06:45.438Z,33.60
2018-05-05T16:09:11.820Z,33.80
2018-05-05T16:11:38.232Z,33.40
2018-05-05T16:14:05.270Z,34.80
2018-05-05T16:16:31.587Z,34.80
2018-05-05T16:18:57.978Z,34.70
2018-05-05T16:21:25.007Z,32.00
2018-05-05T16:23:52.058Z,32.20
2018-05-05T16:26:18.467Z,32.20
2018-05-05T16:28:44.827Z,32.80
2018-05-05T16:31:11.176Z,32.00
2018-05-05T16:33:37.581Z,32.10
2018-05-05T16:36:03.898Z,32.50
2018-05-05T16:38:30.274Z,32.80
2018-05-05T16:40:56.573Z,33.10
2018-05-05T16:43:22.930Z,34.00
2018-05-05T16:45:49.294Z,33.70
2018-05-05T16:48:15.595Z,33.80
2018-05-05T16:50:41.958Z,34.00
2018-05-05T16:53:08.258Z,33.00
2018-05-05T16:55:34.578Z,33.10
2018-05-05T16:58:00.920Z,33.30
2018-05-05T17:00:27.245Z,33.30
2018-05-05T17:02:53.646Z,32.70
2018-05-05T17:05:19.935Z,32.10
2018-05-05T17:07:46.245Z,32.80
2018-05-05T17:10:12.663Z,32.80
2018-05-05T17:12:39.697Z,32.70
2018-05-05T17:15:06.793Z,32.40
2018-05-05T17:17:33.755Z,32.40
2018-05-05T17:20:00.059Z,32.60
2018-05-05T17:22:26.440Z,32.30
2018-05-05T17:24:53.558Z,31.30
2018-05-05T17:27:19.906Z,31.20
2018-05-05T17:29:46.207Z,31.70
2018-05-05T17:32:12.558Z,31.90
2018-05-05T17:34:38.862Z,31.30
2018-05-05T17:37:05.232Z,31.20
2018-05-05T17:39:31.537Z,30.80
2018-05-05T17:41:57.974Z,30.20
2018-05-05T17:44:24.251Z,30.10
2018-05-05T17:46:50.606Z,30.10
2018-05-05T17:49:16.940Z,30.00
2018-05-05T17:51:43.314Z,29.90
2018-05-05T17:54:09.643Z,29.20
2018-05-05T17:56:35.955Z,29.20
2018-05-05T17:59:02.345Z,29.50
2018-05-05T18:01:28.723Z,28.80
2018-05-05T18:03:55.026Z,27.70
2018-05-05T18:06:21.385Z,27.40
2018-05-05T18:08:47.695Z,27.60
2018-05-05T18:11:14.087Z,27.60
2018-05-05T18:13:40.405Z,26.70
2018-05-05T18:16:07.453Z,25.30
2018-05-05T18:18:34.559Z,24.60
2018-05-05T18:21:00.850Z,24.40
2018-05-05T18:23:27.183Z,24.60
2018-05-05T18:25:54.261Z,24.30
2018-05-05T18:28:20.558Z,24.30
2018-05-05T18:30:46.887Z,23.90
2018-05-05T18:33:13.213Z,23.60
2018-05-05T18:35:39.526Z,23.70
2018-05-05T18:38:05.898Z,23.80
2018-05-05T18:40:32.213Z,23.80
2018-05-05T18:42:58.541Z,23.70
2018-05-05T18:45:24.882Z,22.90
2018-05-05T18:47:51.282Z,22.50
2018-05-05T18:50:18.394Z,22.00
2018-05-05T18:52:44.777Z,22.00
2018-05-05T18:55:11.145Z,21.20
2018-05-05T18:57:37.451Z,20.80
2018-05-05T19:00:04.197Z,21.00
2018-05-05T19:02:31.354Z,21.20
2018-05-05T19:04:57.684Z,21.10
2018-05-05T19:07:24.511Z,20.70
2018-05-05T19:09:50.850Z,20.80
2018-05-05T19:12:17.234Z,20.80
2018-05-05T19:14:43.573Z,20.50
2018-05-05T19:17:10.677Z,20.50
2018-05-05T19:19:36.982Z,20.40
2018-05-05T19:22:03.359Z,20.50
2018-05-05T19:24:30.441Z,20.30
2018-05-05T19:26:56.794Z,20.20
2018-05-05T19:29:23.144Z,20.20
2018-05-05T19:31:49.505Z,19.90
2018-05-05T19:34:16.648Z,20.00
2018-05-05T19:36:42.986Z,20.00
2018-05-05T19:39:09.311Z,19.70
2018-05-05T19:41:36.540Z,19.60
2018-05-05T19:44:02.859Z,19.50
2018-05-05T19:46:29.185Z,19.30
2018-05-05T19:48:55.516Z,19.20
2018-05-05T19:51:21.877Z,19.50
2018-05-05T19:53:49.012Z,19.10
2018-05-05T19:56:15.527Z,19.00
2018-05-05T19:58:41.939Z,18.90
2018-05-05T20:01:08.301Z,19.30
2018-05-05T20:03:34.646Z,19.10
2018-05-05T20:06:01.028Z,19.00
2018-05-05T20:08:27.307Z,19.00
2018-05-05T20:10:53.672Z,18.90
2018-05-05T20:13:19.986Z,18.60
2018-05-05T20:15:47.099Z,18.70
2018-05-05T20:18:13.430Z,18.70
2018-05-05T20:20:39.747Z,18.80
2018-05-05T20:23:06.118Z,18.80
2018-05-05T20:25:33.274Z,18.80
2018-05-05T20:27:59.622Z,18.80
2018-05-05T20:30:26.722Z,18.40
2018-05-05T20:32:53.009Z,18.30
2018-05-05T20:35:19.369Z,18.40
2018-05-05T20:37:45.692Z,18.20
2018-05-05T20:40:12.159Z,18.10
2018-05-05T20:42:39.133Z,18.20
2018-05-05T20:45:06.240Z,18.20
2018-05-05T20:47:32.570Z,18.10
2018-05-05T20:49:59.702Z,17.90
2018-05-05T20:52:26.041Z,17.80
2018-05-05T20:54:52.425Z,17.80
2018-05-05T20:57:19.489Z,17.30
2018-05-05T20:59:45.825Z,17.30
2018-05-05T21:02:12.478Z,17.30
2018-05-05T21:04:38.957Z,17.00
2018-05-05T21:07:05.345Z,17.20
2018-05-05T21:09:31.638Z,17.20
2018-05-05T21:11:58.016Z,17.60
2018-05-05T21:14:24.349Z,17.60
2018-05-05T21:16:50.666Z,17.40
2018-05-05T21:19:17.037Z,17.60
2018-05-05T21:21:44.844Z,17.20
2018-05-05T21:24:11.221Z,17.20
2018-05-05T21:26:38.343Z,17.00
2018-05-05T21:29:04.669Z,17.00
2018-05-05T21:31:31.036Z,16.40
2018-05-05T21:33:57.322Z,16.80
2018-05-05T21:36:23.677Z,16.80
2018-05-05T21:38:50.017Z,16.80
2018-05-05T21:41:16.415Z,16.40
2018-05-05T21:43:42.709Z,16.80
2018-05-05T21:46:09.763Z,16.70
2018-05-05T21:48:36.862Z,17.10
2018-05-05T21:51:03.225Z,17.10
2018-05-05T21:53:30.316Z,16.10
2018-05-05T21:55:56.716Z,16.00
2018-05-05T21:58:23.820Z,15.90
2018-05-05T22:00:50.390Z,15.80
2018-05-05T22:03:17.509Z,16.10
2018-05-05T22:05:43.864Z,16.00
2018-05-05T22:08:10.980Z,15.90
2018-05-05T22:10:38.011Z,15.90
2018-05-05T22:13:05.109Z,16.00
2018-05-05T22:15:31.484Z,16.00
2018-05-05T22:17:58.520Z,16.10
2018-05-05T22:20:25.598Z,16.00
2018-05-05T22:22:51.950Z,16.00
2018-05-05T22:25:18.353Z,15.70
2018-05-05T22:27:44.733Z,15.50
2018-05-05T22:30:11.057Z,15.80
2018-05-05T22:32:37.345Z,16.10
2018-05-05T22:35:03.682Z,16.10
2018-05-05T22:37:30.002Z,15.80
2018-05-05T22:39:57.086Z,15.00
2018-05-05T22:42:23.413Z,14.90
2018-05-05T22:44:49.713Z,15.30
2018-05-05T22:47:16.700Z,15.10
2018-05-05T22:49:43.030Z,15.40
2018-05-05T22:52:10.835Z,15.40
2018-05-05T22:54:37.274Z,15.40
2018-05-05T22:57:03.537Z,15.50
2018-05-05T22:59:30.421Z,15.50
2018-05-05T23:01:57.534Z,15.00
2018-05-05T23:04:24.609Z,15.20
2018-05-05T23:06:51.003Z,15.20
2018-05-05T23:09:17.323Z,15.10
2018-05-05T23:11:43.710Z,15.00
2018-05-05T23:14:10.627Z,14.90
2018-05-05T23:16:38.491Z,14.80
2018-05-05T23:19:04.821Z,14.80
2018-05-05T23:21:31.890Z,14.90
2018-05-05T23:23:58.998Z,15.00
2018-05-05T23:26:25.353Z,14.90
2018-05-05T23:28:52.425Z,15.10
2018-05-05T23:31:18.810Z,15.00
2018-05-05T23:33:45.174Z,14.80
2018-05-05T23:36:12.286Z,14.90
2018-05-05T23:38:38.656Z,14.80
2018-05-05T23:41:05.729Z,14.80
2018-05-05T23:43:32.062Z,14.80
2018-05-05T23:45:58.446Z,14.60
2018-05-05T23:48:24.756Z,14.40
2018-05-05T23:50:51.067Z,14.50
2018-05-05T23:53:17.480Z,14.50
2018-05-05T23:55:43.818Z,14.60
2018-05-05T23:58:10.196Z,14.50
